Weather at Roxburgh Aerodrome

Public forecast

Using degrees Celsius for public forecast. Weather courtesy of forecast.io.

Closest aviation weather report (METAR) to Roxburgh Aerodrome

Closest report is Christchurch International Airport, 183.5 nm (339.9 km) NE. Retrieved 2022/07/04 05:00 UTC (29 minutes ago):

NZCH 040500Z AUTO 09007KT 9999 NCD 10/06 Q1019 NOSIG

Closest aviation forecast (TAF) to Roxburgh Aerodrome

Forecast is more than 12 hours old.

Closest forecast is Queenstown International Airport, 38.3 nm (70.9 km) NW. Retrieved 2022/03/28 12:06 UTC (3 months ago):

TAF NZQN 281106Z 2812/2906 04005KT 9999 SKC BECMG 2822/2900 25010KT BECMG 2903/2905 18010KT